NCAR-RAP Real-Time Weather Data

Output produced by METARs form (17 January 2018  22:28 UTC)
found at http://weather.rap.ucar.edu/surface/
 
Conditions at: KGNV observed 17 January 2018  21:53 UTC
Temperature: 8.9°C (48°F)
Dewpoint: 0.0°C (32°F) [RH = 54%]
Pressure (altimeter): 30.28 inches Hg (1025.5 mb)
[Sea-level pressure: 1025.5 mb]
Winds: from the WNW (290 degrees) at 10 MPH (9 knots; 4.7 m/s)
Visibility: 10 or more miles (16+ km)
Ceiling: at least 12,000 feet AGL
Clouds: sky clear below 12,000 feet AGL
Present Weather: no significant weather observed at this time
KGNV 172153Z 29009KT 10SM CLR 09/00 A3028 RMK AO2 SLP255 T00890000

Conditions at: KGNV observed 17 January 2018  20:53 UTC
Temperature: 10.0°C (50°F)
Dewpoint: 2.8°C (37°F) [RH = 61%]
Pressure (altimeter): 30.27 inches Hg (1025.1 mb)
[Sea-level pressure: 1025.1 mb]
Winds: from the NW (310 degrees) at 13 MPH (11 knots; 5.7 m/s)
gusting to 21 MPH (18 knots; 9.4 m/s)
Visibility: 10 or more miles (16+ km)
Ceiling: at least 12,000 feet AGL
Clouds: scattered clouds at 2700 feet AGL
Present Weather: no significant weather observed at this time
KGNV 172053Z 31011G18KT 10SM SCT027 10/03 A3027 RMK AO2 SLP251 T01000028 56009

Conditions at: KGNV observed 17 January 2018  20:44 UTC
Temperature: 10.0°C (50°F)
Dewpoint: 3.3°C (38°F) [RH = 63%]
Pressure (altimeter): 30.27 inches Hg (1025.1 mb)
Winds: from the NW (320 degrees) at 14 MPH (12 knots; 6.2 m/s)
gusting to 21 MPH (18 knots; 9.4 m/s)
Visibility: 10 or more miles (16+ km)
Ceiling: at least 12,000 feet AGL
Clouds: few clouds at 2600 feet AGL
Present Weather: no significant weather observed at this time
KGNV 172044Z 32012G18KT 10SM FEW026 10/03 A3027 RMK AO2 T01000033

Conditions at: KGNV observed 17 January 2018  19:53 UTC
Temperature: 10.0°C (50°F)
Dewpoint: 3.9°C (39°F) [RH = 66%]
Pressure (altimeter): 30.28 inches Hg (1025.5 mb)
[Sea-level pressure: 1025.3 mb]
Winds: from the WNW (290 degrees) at 12 MPH (10 knots; 5.2 m/s)
Visibility: 10 or more miles (16+ km)
Ceiling: 2500 feet AGL
Clouds: overcast cloud deck at 2500 feet AGL
Present Weather: no significant weather observed at this time
KGNV 171953Z 29010KT 10SM OVC025 10/04 A3028 RMK AO2 SLP253 T01000039

Conditions at: KGNV observed 17 January 2018  19:40 UTC
Temperature: 10.0°C (50°F)
Dewpoint: 3.9°C (39°F) [RH = 66%]
Pressure (altimeter): 30.27 inches Hg (1025.1 mb)
Winds: from the NW (310 degrees) at 12 MPH (10 knots; 5.2 m/s)
Visibility: 10 or more miles (16+ km)
Ceiling: 2800 feet AGL
Clouds: few clouds at 2200 feet AGL
broken clouds at 2800 feet AGL
overcast cloud deck at 4700 feet AGL
Present Weather: no significant weather observed at this time
KGNV 171940Z 31010KT 10SM FEW022 BKN028 OVC047 10/04 A3027 RMK AO2 T01000039

Conditions at: KGNV observed 17 January 2018  18:53 UTC
Temperature: 8.9°C (48°F)
Dewpoint: 3.9°C (39°F) [RH = 71%]
Pressure (altimeter): 30.28 inches Hg (1025.5 mb)
[Sea-level pressure: 1025.4 mb]
Winds: from the NNW (330 degrees) at 13 MPH (11 knots; 5.7 m/s)
gusting to 20 MPH (17 knots; 8.8 m/s)
Visibility: 10 or more miles (16+ km)
Ceiling: 3000 feet AGL
Clouds: scattered clouds at 1900 feet AGL
overcast cloud deck at 3000 feet AGL
Present Weather: no significant weather observed at this time
KGNV 171853Z 33011G17KT 10SM SCT019 OVC030 09/04 A3028 RMK AO2 SLP254 T00890039

Conditions at: KGNV observed 17 January 2018  18:34 UTC
Temperature: 8.9°C (48°F)
Dewpoint: 4.4°C (40°F) [RH = 73%]
Pressure (altimeter): 30.28 inches Hg (1025.5 mb)
Winds: from the NNW (330 degrees) at 10 MPH (9 knots; 4.7 m/s)
Visibility: 10 or more miles (16+ km)
Ceiling: 3100 feet AGL
Clouds: scattered clouds at 1600 feet AGL
overcast cloud deck at 3100 feet AGL
Present Weather: no significant weather observed at this time
KGNV 171834Z 33009KT 10SM SCT016 OVC031 09/04 A3028 RMK AO2 T00890044

Conditions at: KGNV observed 17 January 2018  17:53 UTC
Temperature: 10.0°C (50°F)
Dewpoint: 5.0°C (41°F) [RH = 71%]
Pressure (altimeter): 30.30 inches Hg (1026.2 mb)
[Sea-level pressure: 1026.0 mb]
Winds: from the NW (310 degrees) at 8 MPH (7 knots; 3.6 m/s)
gusting to 17 MPH (15 knots; 7.8 m/s)
Visibility: 10 or more miles (16+ km)
Ceiling: 1800 feet AGL
Clouds: overcast cloud deck at 1800 feet AGL
Present Weather: no significant weather observed at this time
KGNV 171753Z 31007G15KT 10SM OVC018 10/05 A3030 RMK AO2 SLP260 T01000050 10128 20011 58005

Conditions at: KGNV observed 17 January 2018  16:53 UTC
Temperature: 12.2°C (54°F)
Dewpoint: 5.6°C (42°F) [RH = 64%]
Pressure (altimeter): 30.31 inches Hg (1026.5 mb)
[Sea-level pressure: 1026.5 mb]
Winds: from the NNW (330 degrees) at 9 MPH (8 knots; 4.2 m/s)
Visibility: 10 or more miles (16+ km)
Ceiling: 2300 feet AGL
Clouds: broken clouds at 2300 feet AGL
overcast cloud deck at 6000 feet AGL
Present Weather: no significant weather observed at this time
KGNV 171653Z 33008KT 10SM BKN023 OVC060 12/06 A3031 RMK AO2 SLP265 T01220056

Conditions at: KGNV observed 17 January 2018  16:01 UTC
Temperature: 12.2°C (54°F)
Dewpoint: 6.1°C (43°F) [RH = 66%]
Pressure (altimeter): 30.33 inches Hg (1027.2 mb)
Winds: from the WNW (300 degrees) at 9 MPH (8 knots; 4.2 m/s)
Visibility: 10 or more miles (16+ km)
Ceiling: 2400 feet AGL
Clouds: broken clouds at 2400 feet AGL
Present Weather: no significant weather observed at this time
KGNV 171601Z 30008KT 10SM BKN024 12/06 A3033 RMK AO2 T01220061

Conditions at: KGNV observed 17 January 2018  15:53 UTC
Temperature: 12.8°C (55°F)
Dewpoint: 6.1°C (43°F) [RH = 64%]
Pressure (altimeter): 30.33 inches Hg (1027.2 mb)
[Sea-level pressure: 1027.1 mb]
Winds: from the WNW (300 degrees) at 15 MPH (13 knots; 6.8 m/s)
Visibility: 10 or more miles (16+ km)
Ceiling: at least 12,000 feet AGL
Clouds: scattered clouds at 2200 feet AGL
Present Weather: no significant weather observed at this time
KGNV 171553Z 30013KT 10SM SCT022 13/06 A3033 RMK AO2 SLP271 T01280061

Conditions at: KGNV observed 17 January 2018  14:53 UTC
Temperature: 10.6°C (51°F)
Dewpoint: 6.1°C (43°F) [RH = 74%]
Pressure (altimeter): 30.31 inches Hg (1026.5 mb)
[Sea-level pressure: 1026.6 mb]
Winds: from the NNW (340 degrees) at 7 MPH (6 knots; 3.1 m/s)
Visibility: 10 or more miles (16+ km)
Ceiling: at least 12,000 feet AGL
Clouds: sky clear below 12,000 feet AGL
Present Weather: no significant weather observed at this time
KGNV 171453Z 34006KT 10SM CLR 11/06 A3031 RMK AO2 SLP266 T01060061 51013

Conditions at: KGNV observed 17 January 2018  13:53 UTC
Temperature: 7.2°C (45°F)
Dewpoint: 5.6°C (42°F) [RH = 90%]
Pressure (altimeter): 30.30 inches Hg (1026.2 mb)
[Sea-level pressure: 1026.2 mb]
Winds: from the NW (310 degrees) at 6 MPH (5 knots; 2.6 m/s)
Visibility: 10 or more miles (16+ km)
Ceiling: at least 12,000 feet AGL
Clouds: sky clear below 12,000 feet AGL
Present Weather: no significant weather observed at this time
KGNV 171353Z 31005KT 10SM CLR 07/06 A3030 RMK AO2 SLP262 T00720056

Conditions at: KGNV observed 17 January 2018  12:53 UTC
Temperature: 4.4°C (40°F)
Dewpoint: 3.9°C (39°F) [RH = 97%]
Pressure (altimeter): 30.29 inches Hg (1025.8 mb)
[Sea-level pressure: 1025.7 mb]
Winds: from the NNW (330 degrees) at 5 MPH (4 knots; 2.1 m/s)
Visibility: 10 or more miles (16+ km)
Ceiling: at least 12,000 feet AGL
Clouds: sky clear below 12,000 feet AGL
Present Weather: no significant weather observed at this time
KGNV 171253Z 33004KT 10SM CLR 04/04 A3029 RMK AO2 SLP257 T00440039

Conditions at: KGNV observed 17 January 2018  11:53 UTC
Temperature: 1.1°C (34°F)
Dewpoint: 1.1°C (34°F) [RH = 100%]
Pressure (altimeter): 30.28 inches Hg (1025.5 mb)
[Sea-level pressure: 1025.4 mb]
Winds: from the NW (310 degrees) at 3 MPH (3 knots; 1.6 m/s)
Visibility: 10 or more miles (16+ km)
Ceiling: at least 12,000 feet AGL
Clouds: sky clear below 12,000 feet AGL
Present Weather: no significant weather observed at this time
KGNV 171153Z 31003KT 10SM CLR 01/01 A3028 RMK AO2 SLP254 T00110011 10056 20011 55002

Conditions at: KGNV observed 17 January 2018  10:53 UTC
Temperature: 1.7°C (35°F)
Dewpoint: 1.1°C (34°F) [RH = 96%]
Pressure (altimeter): 30.27 inches Hg (1025.1 mb)
[Sea-level pressure: 1025.1 mb]
Winds: calm
Visibility: 10 or more miles (16+ km)
Ceiling: at least 12,000 feet AGL
Clouds: sky clear below 12,000 feet AGL
Present Weather: automated observation with no human augmentation;
there may or may not be significant weather present at this time
KGNV 171053Z AUTO 00000KT 10SM CLR 02/01 A3027 RMK AO2 SLP251 T00170011

Conditions at: KGNV observed 17 January 2018  09:53 UTC
Temperature: 2.8°C (37°F)
Dewpoint: 2.2°C (36°F) [RH = 96%]
Pressure (altimeter): 30.27 inches Hg (1025.1 mb)
[Sea-level pressure: 1025.2 mb]
Winds: calm
Visibility: 10 or more miles (16+ km)
Ceiling: at least 12,000 feet AGL
Clouds: sky clear below 12,000 feet AGL
Present Weather: automated observation with no human augmentation;
there may or may not be significant weather present at this time
KGNV 170953Z AUTO 00000KT 10SM CLR 03/02 A3027 RMK AO2 SLP252 T00280022

Conditions at: KGNV observed 17 January 2018  08:53 UTC
Temperature: 2.2°C (36°F)
Dewpoint: 2.2°C (36°F) [RH = 100%]
Pressure (altimeter): 30.28 inches Hg (1025.5 mb)
[Sea-level pressure: 1025.4 mb]
Winds: calm
Visibility: 10 or more miles (16+ km)
Ceiling: at least 12,000 feet AGL
Clouds: scattered clouds at 100 feet AGL
Present Weather: automated observation with no human augmentation;
there may or may not be significant weather present at this time
KGNV 170853Z AUTO 00000KT 10SM SCT001 02/02 A3028 RMK AO2 SLP254 T00220022 56007

Conditions at: KGNV observed 17 January 2018  08:19 UTC
Temperature: 3.9°C (39°F)
Dewpoint: 3.3°C (38°F) [RH = 96%]
Pressure (altimeter): 30.28 inches Hg (1025.5 mb)
Winds: calm
Visibility: 10 or more miles (16+ km)
Ceiling: at least 12,000 feet AGL
Clouds: scattered clouds at 100 feet AGL
Present Weather: automated observation with no human augmentation;
there may or may not be significant weather present at this time
KGNV 170819Z AUTO 00000KT 10SM SCT001 04/03 A3028 RMK AO2 T00390033

Conditions at: KGNV observed 17 January 2018  07:53 UTC
Temperature: 3.3°C (38°F)
Dewpoint: 2.8°C (37°F) [RH = 97%]
Pressure (altimeter): 30.29 inches Hg (1025.8 mb)
[Sea-level pressure: 1025.5 mb]
Winds: calm
Visibility: 10 or more miles (16+ km)
Ceiling: 200 feet AGL
Clouds: broken clouds at 200 feet AGL
Present Weather: automated observation with no human augmentation;
there may or may not be significant weather present at this time
KGNV 170753Z AUTO 00000KT 10SM BKN002 03/03 A3029 RMK AO2 SLP255 T00330028

Conditions at: KGNV observed 17 January 2018  07:48 UTC
Temperature: 3.0°C (37°F)
Dewpoint: 3.0°C (37°F) [RH = 100%]
Pressure (altimeter): 30.29 inches Hg (1025.8 mb)
Winds: calm
Visibility: 10 or more miles (16+ km)
Ceiling: 200 feet AGL
Clouds: broken clouds at 200 feet AGL
Present Weather: automated observation with no human augmentation;
there may or may not be significant weather present at this time
KGNV 170748Z AUTO 00000KT 10SM BKN002 03/03 A3029 RMK AO2

Conditions at: KGNV observed 17 January 2018  07:39 UTC
Temperature: 2.8°C (37°F)
Dewpoint: 2.8°C (37°F) [RH = 100%]
Pressure (altimeter): 30.29 inches Hg (1025.8 mb)
Winds: from the W (280 degrees) at 3 MPH (3 knots; 1.6 m/s)
Visibility: 10 or more miles (16+ km)
Ceiling: at least 12,000 feet AGL
Clouds: scattered clouds at 200 feet AGL
Present Weather: automated observation with no human augmentation;
there may or may not be significant weather present at this time
KGNV 170739Z AUTO 28003KT 10SM SCT002 03/03 A3029 RMK AO2 T00280028

Conditions at: KGNV observed 17 January 2018  06:53 UTC
Temperature: 4.4°C (40°F)
Dewpoint: 3.9°C (39°F) [RH = 97%]
Pressure (altimeter): 30.30 inches Hg (1026.2 mb)
[Sea-level pressure: 1026.1 mb]
Winds: calm
Visibility: 10 or more miles (16+ km)
Ceiling: at least 12,000 feet AGL
Clouds: sky clear below 12,000 feet AGL
Present Weather: automated observation with no human augmentation;
there may or may not be significant weather present at this time
KGNV 170653Z AUTO 00000KT 10SM CLR 04/04 A3030 RMK AO2 SLP261 T00440039

Conditions at: KGNV observed 17 January 2018  05:53 UTC
Temperature: 4.4°C (40°F)
Dewpoint: 4.4°C (40°F) [RH = 100%]
Pressure (altimeter): 30.31 inches Hg (1026.5 mb)
[Sea-level pressure: 1026.4 mb]
Winds: calm
Visibility: 10 or more miles (16+ km)
Ceiling: at least 12,000 feet AGL
Clouds: sky clear below 12,000 feet AGL
Present Weather: automated observation with no human augmentation;
there may or may not be significant weather present at this time
KGNV 170553Z AUTO 00000KT 10SM CLR 04/04 A3031 RMK AO2 SLP264 T00440044 10111 20044 58013

Conditions at: KGNV observed 17 January 2018  04:53 UTC
Temperature: 6.1°C (43°F)
Dewpoint: 5.0°C (41°F) [RH = 93%]
Pressure (altimeter): 30.33 inches Hg (1027.2 mb)
[Sea-level pressure: 1026.9 mb]
Winds: calm
Visibility: 10 or more miles (16+ km)
Ceiling: at least 12,000 feet AGL
Clouds: sky clear below 12,000 feet AGL
Present Weather: automated observation with no human augmentation;
there may or may not be significant weather present at this time
KGNV 170453Z AUTO 00000KT 10SM CLR 06/05 A3033 RMK AO2 SLP269 T00610050 401941011

Conditions at: KGNV observed 17 January 2018  03:53 UTC
Temperature: 7.2°C (45°F)
Dewpoint: 6.1°C (43°F) [RH = 93%]
Pressure (altimeter): 30.35 inches Hg (1027.9 mb)
[Sea-level pressure: 1027.8 mb]
Winds: calm
Visibility: 10 or more miles (16+ km)
Ceiling: at least 12,000 feet AGL
Clouds: sky clear below 12,000 feet AGL
Present Weather: automated observation with no human augmentation;
there may or may not be significant weather present at this time
KGNV 170353Z AUTO 00000KT 10SM CLR 07/06 A3035 RMK AO2 SLP278 T00720061

Conditions at: KGNV observed 17 January 2018  02:53 UTC
Temperature: 7.8°C (46°F)
Dewpoint: 6.7°C (44°F) [RH = 93%]
Pressure (altimeter): 30.35 inches Hg (1027.9 mb)
[Sea-level pressure: 1027.8 mb]
Winds: calm
Visibility: 10 or more miles (16+ km)
Ceiling: at least 12,000 feet AGL
Clouds: sky clear below 12,000 feet AGL
Present Weather: no significant weather observed at this time
KGNV 170253Z 00000KT 10SM CLR 08/07 A3035 RMK AO2 SLP278 T00780067 51008

Conditions at: KGNV observed 17 January 2018  01:53 UTC
Temperature: 9.4°C (49°F)
Dewpoint: 7.2°C (45°F) [RH = 86%]
Pressure (altimeter): 30.34 inches Hg (1027.5 mb)
[Sea-level pressure: 1027.6 mb]
Winds: from the ENE (70 degrees) at 3 MPH (3 knots; 1.6 m/s)
Visibility: 10 or more miles (16+ km)
Ceiling: at least 12,000 feet AGL
Clouds: sky clear below 12,000 feet AGL
Present Weather: no significant weather observed at this time
KGNV 170153Z 07003KT 10SM CLR 09/07 A3034 RMK AO2 SLP276 T00940072

Conditions at: KGNV observed 17 January 2018  00:53 UTC
Temperature: 10.0°C (50°F)
Dewpoint: 6.7°C (44°F) [RH = 80%]
Pressure (altimeter): 30.33 inches Hg (1027.2 mb)
[Sea-level pressure: 1027.2 mb]
Winds: calm
Visibility: 10 or more miles (16+ km)
Ceiling: at least 12,000 feet AGL
Clouds: sky clear below 12,000 feet AGL
Present Weather: no significant weather observed at this time
KGNV 170053Z 00000KT 10SM CLR 10/07 A3033 RMK AO2 SLP272 T01000067

Conditions at: KGNV observed 16 January 2018  23:53 UTC
Temperature: 10.0°C (50°F)
Dewpoint: 5.6°C (42°F) [RH = 74%]
Pressure (altimeter): 30.32 inches Hg (1026.8 mb)
[Sea-level pressure: 1026.9 mb]
Winds: calm
Visibility: 10 or more miles (16+ km)
Ceiling: at least 12,000 feet AGL
Clouds: sky clear below 12,000 feet AGL
Present Weather: no significant weather observed at this time
KGNV 162353Z 00000KT 10SM CLR 10/06 A3032 RMK AO2 SLP269 T01000056 10194 20100 58002

Conditions at: KGNV observed 16 January 2018  22:53 UTC
Temperature: 14.4°C (58°F)
Dewpoint: 5.6°C (42°F) [RH = 55%]
Pressure (altimeter): 30.33 inches Hg (1027.2 mb)
[Sea-level pressure: 1027.2 mb]
Winds: calm
Visibility: 10 or more miles (16+ km)
Ceiling: at least 12,000 feet AGL
Clouds: sky clear below 12,000 feet AGL
Present Weather: no significant weather observed at this time
KGNV 162253Z 00000KT 10SM CLR 14/06 A3033 RMK AO2 SLP272 T01440056

Conditions at: KGNV observed 16 January 2018  21:53 UTC
Temperature: 17.8°C (64°F)
Dewpoint: 2.8°C (37°F) [RH = 37%]
Pressure (altimeter): 30.33 inches Hg (1027.2 mb)
[Sea-level pressure: 1027.1 mb]
Winds: from the ESE (110 degrees) at 3 MPH (3 knots; 1.6 m/s)
Visibility: 10 or more miles (16+ km)
Ceiling: at least 12,000 feet AGL
Clouds: sky clear below 12,000 feet AGL
Present Weather: no significant weather observed at this time
KGNV 162153Z 11003KT 10SM CLR 18/03 A3033 RMK AO2 SLP271 T01780028

Conditions at: KGNV observed 16 January 2018  20:53 UTC
Temperature: 18.3°C (65°F)
Dewpoint: 6.1°C (43°F) [RH = 45%]
Pressure (altimeter): 30.33 inches Hg (1027.2 mb)
[Sea-level pressure: 1027.1 mb]
Winds: from the ESE (110 degrees) at 7 MPH (6 knots; 3.1 m/s)
Visibility: 10 or more miles (16+ km)
Ceiling: at least 12,000 feet AGL
Clouds: sky clear below 12,000 feet AGL
Present Weather: no significant weather observed at this time
KGNV 162053Z 11006KT 10SM CLR 18/06 A3033 RMK AO2 SLP271 T01830061 56022

Conditions at: KGNV observed 16 January 2018  19:53 UTC
Temperature: 19.4°C (67°F)
Dewpoint: 7.2°C (45°F) [RH = 45%]
Pressure (altimeter): 30.34 inches Hg (1027.5 mb)
[Sea-level pressure: 1027.6 mb]
Winds: missing
Visibility: 10 or more miles (16+ km)
Ceiling: at least 12,000 feet AGL
Clouds: scattered clouds at 4800 feet AGL
Present Weather: no significant weather observed at this time
KGNV 161953Z 10SM SCT048 19/07 A3034 RMK AO2 SLP276 T01940072

Conditions at: KGNV observed 16 January 2018  18:53 UTC
Temperature: 18.3°C (65°F)
Dewpoint: 7.8°C (46°F) [RH = 50%]
Pressure (altimeter): 30.36 inches Hg (1028.2 mb)
[Sea-level pressure: 1028.1 mb]
Winds: variable direction winds at 7 MPH (6 knots; 3.1 m/s)
Visibility: 10 or more miles (16+ km)
Ceiling: at least 12,000 feet AGL
Clouds: sky clear below 12,000 feet AGL
Present Weather: no significant weather observed at this time
KGNV 161853Z VRB06KT 10SM CLR 18/08 A3036 RMK AO2 SLP281 T01830078

Conditions at: KGNV observed 16 January 2018  17:53 UTC
Temperature: 17.8°C (64°F)
Dewpoint: 8.3°C (47°F) [RH = 54%]
Pressure (altimeter): 30.39 inches Hg (1029.2 mb)
[Sea-level pressure: 1029.3 mb]
Winds: variable direction winds at 3 MPH (3 knots; 1.6 m/s)
Visibility: 10 or more miles (16+ km)
Ceiling: at least 12,000 feet AGL
Clouds: sky clear below 12,000 feet AGL
Present Weather: no significant weather observed at this time
KGNV 161753Z VRB03KT 10SM CLR 18/08 A3039 RMK AO2 SLP293 T01780083 10178 20022 58019

Conditions at: KGNV observed 16 January 2018  16:53 UTC
Temperature: 17.2°C (63°F)
Dewpoint: 7.8°C (46°F) [RH = 54%]
Pressure (altimeter): 30.43 inches Hg (1030.6 mb)
[Sea-level pressure: 1030.6 mb]
Winds: from the NNE (30 degrees) at 8 MPH (7 knots; 3.6 m/s)
Visibility: 10 or more miles (16+ km)
Ceiling: at least 12,000 feet AGL
Clouds: sky clear below 12,000 feet AGL
Present Weather: no significant weather observed at this time
KGNV 161653Z 03007KT 10SM CLR 17/08 A3043 RMK AO2 SLP306 T01720078

Conditions at: KGNV observed 16 January 2018  15:53 UTC
Temperature: 13.9°C (57°F)
Dewpoint: 6.7°C (44°F) [RH = 62%]
Pressure (altimeter): 30.45 inches Hg (1031.2 mb)
[Sea-level pressure: 1031.1 mb]
Winds: from the NNE (30 degrees) at 7 MPH (6 knots; 3.1 m/s)
Visibility: 10 or more miles (16+ km)
Ceiling: at least 12,000 feet AGL
Clouds: sky clear below 12,000 feet AGL
Present Weather: no significant weather observed at this time
KGNV 161553Z 03006KT 10SM CLR 14/07 A3045 RMK AO2 SLP311 T01390067

Conditions at: KGNV observed 16 January 2018  14:53 UTC
Temperature: 11.1°C (52°F)
Dewpoint: 5.6°C (42°F) [RH = 69%]
Pressure (altimeter): 30.45 inches Hg (1031.2 mb)
[Sea-level pressure: 1031.2 mb]
Winds: from the NNE (30 degrees) at 7 MPH (6 knots; 3.1 m/s)
Visibility: 10 or more miles (16+ km)
Ceiling: at least 12,000 feet AGL
Clouds: sky clear below 12,000 feet AGL
Present Weather: no significant weather observed at this time
KGNV 161453Z 03006KT 10SM CLR 11/06 A3045 RMK AO2 SLP312 T01110056 51008

Conditions at: KGNV observed 16 January 2018  13:53 UTC
Temperature: 7.2°C (45°F)
Dewpoint: 3.9°C (39°F) [RH = 80%]
Pressure (altimeter): 30.45 inches Hg (1031.2 mb)
[Sea-level pressure: 1031.2 mb]
Winds: from the NNE (30 degrees) at 7 MPH (6 knots; 3.1 m/s)
Visibility: 10 or more miles (16+ km)
Ceiling: at least 12,000 feet AGL
Clouds: sky clear below 12,000 feet AGL
Present Weather: no significant weather observed at this time
KGNV 161353Z 03006KT 10SM CLR 07/04 A3045 RMK AO2 SLP312 T00720039

Conditions at: KGNV observed 16 January 2018  12:53 UTC
Temperature: 3.3°C (38°F)
Dewpoint: 1.7°C (35°F) [RH = 89%]
Pressure (altimeter): 30.44 inches Hg (1030.9 mb)
[Sea-level pressure: 1030.8 mb]
Winds: from the N (10 degrees) at 3 MPH (3 knots; 1.6 m/s)
Visibility: 10 or more miles (16+ km)
Ceiling: at least 12,000 feet AGL
Clouds: sky clear below 12,000 feet AGL
Present Weather: no significant weather observed at this time
KGNV 161253Z 01003KT 10SM CLR 03/02 A3044 RMK AO2 SLP308 T00330017

Conditions at: KGNV observed 16 January 2018  11:53 UTC
Temperature: 2.2°C (36°F)
Dewpoint: 1.1°C (34°F) [RH = 92%]
Pressure (altimeter): 30.43 inches Hg (1030.6 mb)
[Sea-level pressure: 1030.5 mb]
Winds: from the N (350 degrees) at 3 MPH (3 knots; 1.6 m/s)
Visibility: 10 or more miles (16+ km)
Ceiling: at least 12,000 feet AGL
Clouds: sky clear below 12,000 feet AGL
Present Weather: no significant weather observed at this time
KGNV 161153Z 35003KT 10SM CLR 02/01 A3043 RMK AO2 SLP305 T00220011 10028 21011 52005

Conditions at: KGNV observed 16 January 2018  10:53 UTC
Temperature: 2.2°C (36°F)
Dewpoint: 0.6°C (33°F) [RH = 89%]
Pressure (altimeter): 30.42 inches Hg (1030.2 mb)
[Sea-level pressure: 1030.2 mb]
Winds: from the N (10 degrees) at 3 MPH (3 knots; 1.6 m/s)
Visibility: 10 or more miles (16+ km)
Ceiling: at least 12,000 feet AGL
Clouds: sky clear below 12,000 feet AGL
Present Weather: automated observation with no human augmentation;
there may or may not be significant weather present at this time
KGNV 161053Z AUTO 01003KT 10SM CLR 02/01 A3042 RMK AO2 SLP302 T00220006

Conditions at: KGNV observed 16 January 2018  09:53 UTC
Temperature: 1.1°C (34°F)
Dewpoint: 0.0°C (32°F) [RH = 92%]
Pressure (altimeter): 30.42 inches Hg (1030.2 mb)
[Sea-level pressure: 1030.1 mb]
Winds: from the NNW (340 degrees) at 3 MPH (3 knots; 1.6 m/s)
Visibility: 10 or more miles (16+ km)
Ceiling: at least 12,000 feet AGL
Clouds: sky clear below 12,000 feet AGL
Present Weather: automated observation with no human augmentation;
there may or may not be significant weather present at this time
KGNV 160953Z AUTO 34003KT 10SM CLR 01/00 A3042 RMK AO2 SLP301 T00110000

Conditions at: KGNV observed 16 January 2018  08:53 UTC
Temperature: 1.1°C (34°F)
Dewpoint: 0.0°C (32°F) [RH = 92%]
Pressure (altimeter): 30.41 inches Hg (1029.9 mb)
[Sea-level pressure: 1029.9 mb]
Winds: from the N (350 degrees) at 5 MPH (4 knots; 2.1 m/s)
Visibility: 10 or more miles (16+ km)
Ceiling: at least 12,000 feet AGL
Clouds: sky clear below 12,000 feet AGL
Present Weather: automated observation with no human augmentation;
there may or may not be significant weather present at this time
KGNV 160853Z AUTO 35004KT 10SM CLR 01/00 A3041 RMK AO2 SLP299 T00110000 55001

Conditions at: KGNV observed 16 January 2018  07:53 UTC
Temperature: -1.1°C (30°F)
Dewpoint: -1.7°C (29°F) [RH = 96%]
Pressure (altimeter): 30.40 inches Hg (1029.5 mb)
[Sea-level pressure: 1029.5 mb]
Winds: calm
Visibility: 10 or more miles (16+ km)
Ceiling: at least 12,000 feet AGL
Clouds: sky clear below 12,000 feet AGL
Present Weather: automated observation with no human augmentation;
there may or may not be significant weather present at this time
KGNV 160753Z AUTO 00000KT 10SM CLR M01/M02 A3040 RMK AO2 SLP295 T10111017

Conditions at: KGNV observed 16 January 2018  06:53 UTC
Temperature: -0.6°C (31°F)
Dewpoint: -1.7°C (29°F) [RH = 92%]
Pressure (altimeter): 30.41 inches Hg (1029.9 mb)
[Sea-level pressure: 1029.9 mb]
Winds: calm
Visibility: 10 or more miles (16+ km)
Ceiling: at least 12,000 feet AGL
Clouds: sky clear below 12,000 feet AGL
Present Weather: automated observation with no human augmentation;
there may or may not be significant weather present at this time
KGNV 160653Z AUTO 00000KT 10SM CLR M01/M02 A3041 RMK AO2 SLP299 T10061017

Conditions at: KGNV observed 16 January 2018  05:53 UTC
Temperature: 2.8°C (37°F)
Dewpoint: 0.0°C (32°F) [RH = 82%]
Pressure (altimeter): 30.41 inches Hg (1029.9 mb)
[Sea-level pressure: 1030.0 mb]
Winds: calm
Visibility: 10 or more miles (16+ km)
Ceiling: at least 12,000 feet AGL
Clouds: sky clear below 12,000 feet AGL
Present Weather: automated observation with no human augmentation;
there may or may not be significant weather present at this time
KGNV 160553Z AUTO 00000KT 10SM CLR 03/00 A3041 RMK AO2 SLP300 T00280000 10072 20000 58011

Conditions at: KGNV observed 16 January 2018  04:53 UTC
Temperature: 1.1°C (34°F)
Dewpoint: -1.1°C (30°F) [RH = 85%]
Pressure (altimeter): 30.43 inches Hg (1030.6 mb)
[Sea-level pressure: 1030.5 mb]
Winds: calm
Visibility: 10 or more miles (16+ km)
Ceiling: at least 12,000 feet AGL
Clouds: sky clear below 12,000 feet AGL
Present Weather: automated observation with no human augmentation;
there may or may not be significant weather present at this time
KGNV 160453Z AUTO 00000KT 10SM CLR 01/M01 A3043 RMK AO2 SLP305 T00111011 401500000

Conditions at: KGNV observed 16 January 2018  03:53 UTC
Temperature: 3.3°C (38°F)
Dewpoint: -0.6°C (31°F) [RH = 76%]
Pressure (altimeter): 30.44 inches Hg (1030.9 mb)
[Sea-level pressure: 1030.9 mb]
Winds: from the ENE (70 degrees) at 5 MPH (4 knots; 2.1 m/s)
Visibility: 10 or more miles (16+ km)
Ceiling: at least 12,000 feet AGL
Clouds: sky clear below 12,000 feet AGL
Present Weather: automated observation with no human augmentation;
there may or may not be significant weather present at this time
KGNV 160353Z AUTO 07004KT 10SM CLR 03/M01 A3044 RMK AO2 SLP309 T00331006

Conditions at: KGNV observed 16 January 2018  02:53 UTC
Temperature: 3.9°C (39°F)
Dewpoint: -0.6°C (31°F) [RH = 72%]
Pressure (altimeter): 30.45 inches Hg (1031.2 mb)
[Sea-level pressure: 1031.2 mb]
Winds: from the ENE (60 degrees) at 3 MPH (3 knots; 1.6 m/s)
Visibility: 10 or more miles (16+ km)
Ceiling: at least 12,000 feet AGL
Clouds: sky clear below 12,000 feet AGL
Present Weather: no significant weather observed at this time
KGNV 160253Z 06003KT 10SM CLR 04/M01 A3045 RMK AO2 SLP312 T00391006 51011

Conditions at: KGNV observed 16 January 2018  01:53 UTC
Temperature: 3.9°C (39°F)
Dewpoint: -0.6°C (31°F) [RH = 72%]
Pressure (altimeter): 30.44 inches Hg (1030.9 mb)
[Sea-level pressure: 1031.0 mb]
Winds: from the ENE (60 degrees) at 5 MPH (4 knots; 2.1 m/s)
Visibility: 10 or more miles (16+ km)
Ceiling: at least 12,000 feet AGL
Clouds: sky clear below 12,000 feet AGL
Present Weather: no significant weather observed at this time
KGNV 160153Z 06004KT 10SM CLR 04/M01 A3044 RMK AO2 SLP310 T00391006

Conditions at: KGNV observed 16 January 2018  00:53 UTC
Temperature: 5.6°C (42°F)
Dewpoint: 0.0°C (32°F) [RH = 67%]
Pressure (altimeter): 30.43 inches Hg (1030.6 mb)
[Sea-level pressure: 1030.7 mb]
Winds: from the ENE (70 degrees) at 7 MPH (6 knots; 3.1 m/s)
Visibility: 10 or more miles (16+ km)
Ceiling: at least 12,000 feet AGL
Clouds: sky clear below 12,000 feet AGL
Present Weather: no significant weather observed at this time
KGNV 160053Z 07006KT 10SM CLR 06/00 A3043 RMK AO2 SLP307 T00560000

Conditions at: KGNV observed 15 January 2018  23:53 UTC
Temperature: 7.8°C (46°F)
Dewpoint: 1.1°C (34°F) [RH = 63%]
Pressure (altimeter): 30.41 inches Hg (1029.9 mb)
[Sea-level pressure: 1030.1 mb]
Winds: from the ENE (70 degrees) at 7 MPH (6 knots; 3.1 m/s)
Visibility: 10 or more miles (16+ km)
Ceiling: at least 12,000 feet AGL
Clouds: sky clear below 12,000 feet AGL
Present Weather: no significant weather observed at this time
KGNV 152353Z 07006KT 10SM CLR 08/01 A3041 RMK AO2 SLP301 T00780011 10150 20072 53013

Conditions at: KGNV observed 15 January 2018  22:53 UTC
Temperature: 10.0°C (50°F)
Dewpoint: 1.7°C (35°F) [RH = 56%]
Pressure (altimeter): 30.39 inches Hg (1029.2 mb)
[Sea-level pressure: 1029.4 mb]
Winds: from the ENE (70 degrees) at 8 MPH (7 knots; 3.6 m/s)
Visibility: 10 or more miles (16+ km)
Ceiling: at least 12,000 feet AGL
Clouds: sky clear below 12,000 feet AGL
Present Weather: no significant weather observed at this time
KGNV 152253Z 07007KT 10SM CLR 10/02 A3039 RMK AO2 SLP294 T01000017